createdAt,value
2023-03-29T00:02:05.204Z,100640.09
2023-03-29T00:04:32.182Z,100647.59
2023-03-29T00:07:04.112Z,100640.63
2023-03-29T00:09:33.494Z,100638.59
2023-03-29T00:12:01.569Z,100630.38
2023-03-29T00:14:30.907Z,100634.81
2023-03-29T00:16:59.220Z,100633.13
2023-03-29T00:19:26.777Z,100631.22
2023-03-29T00:21:53.525Z,100629.53
2023-03-29T00:24:21.617Z,100627.00
2023-03-29T00:26:48.569Z,100632.44
2023-03-29T00:29:15.326Z,100630.78
2023-03-29T00:31:42.286Z,100623.22
2023-03-29T00:34:09.193Z,100624.94
2023-03-29T00:36:35.849Z,100621.16
2023-03-29T00:39:03.170Z,100624.06
2023-03-29T00:41:29.880Z,100613.81
2023-03-29T00:44:02.084Z,100604.78
2023-03-29T00:46:32.120Z,100594.03
2023-03-29T00:49:05.863Z,100598.47
2023-03-29T00:51:36.795Z,100589.44
2023-03-29T00:54:06.645Z,100584.81
2023-03-29T00:56:37.815Z,100582.94
2023-03-29T00:59:04.960Z,100576.41
2023-03-29T01:01:42.348Z,100575.59
2023-03-29T01:04:18.554Z,100579.53
2023-03-29T01:06:57.007Z,100573.44
2023-03-29T01:09:27.241Z,100574.88
2023-03-29T01:11:57.488Z,100585.97
2023-03-29T01:14:49.017Z,100577.31
2023-03-29T01:17:16.536Z,100585.22
2023-03-29T01:19:51.014Z,100581.84
2023-03-29T01:22:31.157Z,100589.19
2023-03-29T01:25:29.757Z,100583.56
2023-03-29T01:28:18.533Z,100569.53
2023-03-29T01:31:10.788Z,100577.31
2023-03-29T01:33:51.184Z,100567.03
2023-03-29T01:36:25.099Z,100566.00
2023-03-29T01:39:00.952Z,100550.66
2023-03-29T01:41:46.797Z,100552.34
2023-03-29T01:44:16.625Z,100543.34
2023-03-29T01:46:48.580Z,100541.63
2023-03-29T01:49:27.465Z,100556.31
2023-03-29T01:52:17.636Z,100544.97
2023-03-29T01:54:53.445Z,100546.19
2023-03-29T01:57:21.885Z,100536.88
2023-03-29T01:59:49.738Z,100540.63
2023-03-29T02:02:19.049Z,100527.66
2023-03-29T02:04:51.886Z,100528.69
2023-03-29T02:07:21.187Z,100512.50
2023-03-29T02:09:50.590Z,100530.75
2023-03-29T02:12:17.505Z,100523.63
2023-03-29T02:14:44.511Z,100519.84
2023-03-29T02:17:23.411Z,100517.09
2023-03-29T02:19:59.520Z,100499.06
2023-03-29T02:22:38.768Z,100494.84
2023-03-29T02:25:09.110Z,100488.50
2023-03-29T02:27:37.890Z,100472.34
2023-03-29T02:30:07.398Z,100477.34
2023-03-29T02:32:43.663Z,100476.69
2023-03-29T02:35:14.360Z,100478.38
2023-03-29T02:37:45.346Z,100466.63
2023-03-29T02:40:14.521Z,100468.28
2023-03-29T02:42:44.975Z,100475.38
2023-03-29T02:45:17.294Z,100467.59
2023-03-29T02:47:52.427Z,100476.25
2023-03-29T02:50:20.744Z,100471.63
2023-03-29T02:52:59.676Z,100461.94
2023-03-29T02:55:34.839Z,100452.03
2023-03-29T02:58:08.480Z,100458.38
2023-03-29T03:00:42.340Z,100459.88
2023-03-29T03:03:10.477Z,100462.41
2023-03-29T03:05:38.498Z,100462.41
2023-03-29T03:08:07.308Z,100462.78
2023-03-29T03:10:35.468Z,100432.91
2023-03-29T03:13:03.050Z,100405.16
2023-03-29T03:15:31.227Z,100403.00
2023-03-29T03:17:58.099Z,100411.59
2023-03-29T03:20:25.086Z,100393.69
2023-03-29T03:22:51.778Z,100349.38
2023-03-29T03:25:21.341Z,100354.59
2023-03-29T03:27:49.848Z,100375.28
2023-03-29T03:30:17.470Z,100389.50
2023-03-29T03:32:45.020Z,100397.22
2023-03-29T03:35:11.942Z,100385.66
2023-03-29T03:37:40.182Z,100389.59
2023-03-29T03:40:09.048Z,100407.47
2023-03-29T03:42:35.920Z,100413.59
2023-03-29T03:45:02.606Z,100413.41
2023-03-29T03:47:29.568Z,100408.00
2023-03-29T03:49:56.565Z,100419.19
2023-03-29T03:52:23.501Z,100417.75
2023-03-29T03:54:50.468Z,100397.66
2023-03-29T03:57:17.647Z,100404.78
2023-03-29T03:59:44.886Z,100404.78
2023-03-29T04:02:11.721Z,100405.16
2023-03-29T04:04:39.574Z,100396.97
2023-03-29T04:07:06.259Z,100380.59
2023-03-29T04:09:33.511Z,100370.38
2023-03-29T04:12:01.743Z,100368.28
2023-03-29T04:14:28.446Z,100353.81
2023-03-29T04:16:55.695Z,100359.75
2023-03-29T04:19:23.130Z,100346.47
2023-03-29T04:21:51.288Z,100341.59
2023-03-29T04:24:18.088Z,100337.38
2023-03-29T04:26:45.196Z,100332.31
2023-03-29T04:29:11.964Z,100345.66
2023-03-29T04:31:38.704Z,100344.66
2023-03-29T04:34:05.609Z,100346.34
2023-03-29T04:36:32.527Z,100342.19
2023-03-29T04:39:01.628Z,100339.47
2023-03-29T04:41:29.083Z,100333.16
2023-03-29T04:43:56.252Z,100330.22
2023-03-29T04:46:26.662Z,100325.81
2023-03-29T04:48:54.082Z,100316.34
2023-03-29T04:51:22.630Z,100318.41
2023-03-29T04:53:50.386Z,100326.59
2023-03-29T04:56:17.356Z,100318.88
2023-03-29T04:58:44.758Z,100316.53
2023-03-29T05:01:11.690Z,100317.56
2023-03-29T05:03:38.677Z,100318.59
2023-03-29T05:06:07.678Z,100311.44
2023-03-29T05:08:39.324Z,100314.84
2023-03-29T05:11:08.548Z,100317.56
2023-03-29T05:13:35.504Z,100306.19
2023-03-29T05:16:02.671Z,100299.06
2023-03-29T05:18:30.537Z,100300.75
2023-03-29T05:20:58.000Z,100280.63
2023-03-29T05:23:25.240Z,100281.66
2023-03-29T05:25:55.796Z,100289.84
2023-03-29T05:28:22.715Z,100276.22
2023-03-29T05:31:01.385Z,100274.72
2023-03-29T05:33:28.329Z,100278.94
2023-03-29T05:36:06.564Z,100269.25
2023-03-29T05:38:33.959Z,100256.50
2023-03-29T05:41:01.173Z,100259.41
2023-03-29T05:43:28.682Z,100261.66
2023-03-29T05:45:56.462Z,100250.97
2023-03-29T05:48:23.940Z,100252.19
2023-03-29T05:50:53.869Z,100233.72
2023-03-29T05:53:22.806Z,100238.50
2023-03-29T05:55:49.874Z,100232.22
2023-03-29T05:58:18.290Z,100233.03
2023-03-29T06:00:52.973Z,100238.06
2023-03-29T06:03:25.539Z,100238.69
2023-03-29T06:05:59.868Z,100245.19
2023-03-29T06:08:28.029Z,100232.22
2023-03-29T06:11:02.473Z,100227.22
2023-03-29T06:13:33.670Z,100218.19
2023-03-29T06:16:01.197Z,100225.34
2023-03-29T06:18:28.224Z,100223.44
2023-03-29T06:20:55.260Z,100217.78
2023-03-29T06:23:23.169Z,100217.63
2023-03-29T06:25:51.605Z,100220.34
2023-03-29T06:28:19.954Z,100212.81
2023-03-29T06:30:47.205Z,100211.09
2023-03-29T06:33:14.841Z,100204.00
2023-03-29T06:35:43.948Z,100204.00
2023-03-29T06:38:11.422Z,100196.66
2023-03-29T06:40:38.370Z,100184.91
2023-03-29T06:43:06.906Z,100192.03
2023-03-29T06:45:36.243Z,100189.28
2023-03-29T06:48:04.468Z,100188.25
2023-03-29T06:50:31.568Z,100180.09
2023-03-29T06:52:58.560Z,100171.06
2023-03-29T06:55:26.180Z,100161.84
2023-03-29T06:57:54.205Z,100147.19
2023-03-29T07:00:30.847Z,100128.75
2023-03-29T07:02:58.682Z,100133.13
2023-03-29T07:05:28.633Z,100127.69
2023-03-29T07:08:11.606Z,100129.19
2023-03-29T07:10:39.384Z,100133.81
2023-03-29T07:13:08.835Z,100129.19
2023-03-29T07:15:36.215Z,100123.72
2023-03-29T07:18:04.908Z,100112.00
2023-03-29T07:20:33.806Z,100108.41
2023-03-29T07:23:00.920Z,100098.56
2023-03-29T07:25:27.848Z,100104.22
2023-03-29T07:27:54.748Z,100106.94
2023-03-29T07:30:24.470Z,100110.28
2023-03-29T07:32:52.453Z,100112.41
2023-03-29T07:35:19.629Z,100120.84
2023-03-29T07:37:46.618Z,100110.41
2023-03-29T07:40:18.378Z,100100.78
2023-03-29T07:42:49.093Z,100094.91
2023-03-29T07:45:17.141Z,100085.31
2023-03-29T07:47:44.823Z,100090.38
2023-03-29T07:50:12.581Z,100093.72
2023-03-29T07:52:39.737Z,100092.50
2023-03-29T07:55:08.245Z,100085.53
2023-03-29T07:57:35.615Z,100086.41
2023-03-29T08:00:16.550Z,100099.19
2023-03-29T08:02:45.682Z,100092.91
2023-03-29T08:05:14.315Z,100096.22
2023-03-29T08:07:43.248Z,100087.56
2023-03-29T08:10:13.902Z,100077.53
2023-03-29T08:12:41.235Z,100069.34
2023-03-29T08:15:09.362Z,100076.09
2023-03-29T08:17:37.249Z,100066.66
2023-03-29T08:20:06.100Z,100050.94
2023-03-29T08:22:33.888Z,100026.66
2023-03-29T08:25:00.818Z,100011.09
2023-03-29T08:27:27.632Z,100014.88
2023-03-29T08:29:54.581Z,100008.34
2023-03-29T08:32:21.612Z,99995.28
2023-03-29T08:34:48.589Z,99990.72
2023-03-29T08:37:15.873Z,99989.66
2023-03-29T08:39:42.945Z,99979.59
2023-03-29T08:42:36.493Z,99985.50
2023-03-29T08:45:32.794Z,99992.63
2023-03-29T08:48:02.334Z,99990.53
2023-03-29T08:50:40.697Z,99981.94
2023-03-29T08:53:15.554Z,99992.00
2023-03-29T08:55:45.400Z,99982.38
2023-03-29T08:58:20.353Z,99963.91
2023-03-29T09:00:52.241Z,99965.59
2023-03-29T09:03:25.390Z,99957.81
2023-03-29T09:06:04.009Z,99950.25
2023-03-29T09:08:31.209Z,99938.09
2023-03-29T09:11:23.472Z,99924.25
2023-03-29T09:14:11.385Z,99905.75
2023-03-29T09:16:54.714Z,99909.34
2023-03-29T09:19:46.244Z,99906.41
2023-03-29T09:22:40.271Z,99916.50
2023-03-29T09:25:29.886Z,99907.47
2023-03-29T09:28:19.342Z,99902.44
2023-03-29T09:31:04.056Z,99895.50
2023-03-29T09:33:44.157Z,99897.19
2023-03-29T09:36:32.685Z,99897.63
2023-03-29T09:38:59.959Z,99915.06
2023-03-29T09:41:35.801Z,99898.66
2023-03-29T09:44:17.656Z,99900.94
2023-03-29T09:46:57.735Z,99895.50
2023-03-29T09:49:33.318Z,99890.25
2023-03-29T09:52:06.800Z,99878.69
2023-03-29T09:54:33.514Z,99860.44
2023-03-29T09:57:00.448Z,99847.66
2023-03-29T09:59:27.201Z,99858.34
2023-03-29T10:01:53.982Z,99864.03
2023-03-29T10:04:22.428Z,99847.44
2023-03-29T10:06:52.459Z,99847.03
2023-03-29T10:09:24.896Z,99834.44
2023-03-29T10:11:55.249Z,99834.44
2023-03-29T10:14:54.242Z,99823.75
2023-03-29T10:17:22.360Z,99821.00
2023-03-29T10:20:01.598Z,99820.19
2023-03-29T10:22:37.887Z,99823.75
2023-03-29T10:25:13.016Z,99814.31
2023-03-29T10:27:42.596Z,99809.28
2023-03-29T10:30:13.051Z,99814.09
2023-03-29T10:32:41.427Z,99811.16
2023-03-29T10:35:15.237Z,99807.59
2023-03-29T10:37:49.920Z,99805.91
2023-03-29T10:40:25.718Z,99809.47
2023-03-29T10:42:54.112Z,99808.44
2023-03-29T10:45:25.976Z,99806.31
2023-03-29T10:47:55.604Z,99799.19
2023-03-29T10:50:22.590Z,99800.84
2023-03-29T10:52:50.573Z,99795.81
2023-03-29T10:55:17.490Z,99794.13
2023-03-29T10:57:47.325Z,99793.53
2023-03-29T11:00:23.616Z,99788.50
2023-03-29T11:03:14.272Z,99787.47
2023-03-29T11:06:18.471Z,99778.19
2023-03-29T11:09:02.083Z,99781.16
2023-03-29T11:12:14.849Z,99767.28
2023-03-29T11:15:03.113Z,99779.88
2023-03-29T11:18:06.164Z,99776.13
2023-03-29T11:20:45.202Z,99772.97
2023-03-29T11:23:25.115Z,99781.53
2023-03-29T11:26:19.136Z,99776.09
2023-03-29T11:29:03.033Z,99772.97
2023-03-29T11:31:44.503Z,99788.25
2023-03-29T11:34:20.700Z,99783.44
2023-03-29T11:36:58.924Z,99791.00
2023-03-29T11:39:34.889Z,99785.75
2023-03-29T11:42:11.816Z,99786.78
2023-03-29T11:44:41.144Z,99774.78
2023-03-29T11:47:17.287Z,99772.41
2023-03-29T11:50:06.824Z,99754.47
2023-03-29T11:52:38.050Z,99761.31
2023-03-29T11:55:14.580Z,99753.41
2023-03-29T11:57:48.029Z,99755.38
2023-03-29T12:00:27.636Z,99754.19
2023-03-29T12:02:54.315Z,99736.22
2023-03-29T12:05:31.122Z,99719.06
2023-03-29T12:08:06.552Z,99725.16
2023-03-29T12:10:39.783Z,99728.47
2023-03-29T12:13:17.157Z,99716.28
2023-03-29T12:16:27.687Z,99725.28
2023-03-29T12:19:02.740Z,99712.09
2023-03-29T12:21:31.153Z,99718.03
2023-03-29T12:23:58.766Z,99719.56
2023-03-29T12:26:35.312Z,99715.13
2023-03-29T12:29:18.567Z,99714.56
2023-03-29T12:32:19.677Z,99724.91
2023-03-29T12:34:55.985Z,99718.50
2023-03-29T12:37:52.806Z,99699.66
2023-03-29T12:40:21.421Z,99702.44
2023-03-29T12:43:02.974Z,99710.72
2023-03-29T12:45:34.645Z,99703.56
2023-03-29T12:48:01.996Z,99682.19
2023-03-29T12:50:35.666Z,99695.78
2023-03-29T12:53:12.700Z,99682.16
2023-03-29T12:55:42.523Z,99685.63
2023-03-29T12:58:40.153Z,99691.31
2023-03-29T13:01:22.642Z,99676.59
2023-03-29T13:03:56.104Z,99666.13
2023-03-29T13:06:54.097Z,99667.78
2023-03-29T13:09:30.060Z,99649.56
2023-03-29T13:12:27.044Z,99645.78
2023-03-29T13:15:01.165Z,99631.22
2023-03-29T13:17:34.326Z,99650.88
2023-03-29T13:20:21.868Z,99641.72
2023-03-29T13:22:48.741Z,99631.22
2023-03-29T13:25:52.698Z,99614.38
2023-03-29T13:28:22.668Z,99616.34
2023-03-29T13:30:58.465Z,99630.47
2023-03-29T13:33:50.001Z,99621.72
2023-03-29T13:36:54.380Z,99649.94
2023-03-29T13:39:25.475Z,99648.88
2023-03-29T13:41:54.306Z,99638.47
2023-03-29T13:44:30.037Z,99645.81
2023-03-29T13:47:19.308Z,99630.44
2023-03-29T13:49:54.279Z,99617.56
2023-03-29T13:52:39.527Z,99618.22
2023-03-29T13:55:11.123Z,99606.94
2023-03-29T13:57:43.697Z,99611.00
2023-03-29T14:00:20.385Z,99626.50
2023-03-29T14:03:01.509Z,99617.13
2023-03-29T14:05:47.826Z,99613.47
2023-03-29T14:08:21.948Z,99620.78
2023-03-29T14:10:49.749Z,99621.19
2023-03-29T14:13:23.097Z,99596.00
2023-03-29T14:15:55.821Z,99614.34
2023-03-29T14:18:25.653Z,99591.09
2023-03-29T14:20:55.648Z,99596.63
2023-03-29T14:23:28.453Z,99598.00
2023-03-29T14:25:55.156Z,99592.41
2023-03-29T14:28:27.232Z,99587.69
2023-03-29T14:30:55.160Z,99593.31
2023-03-29T14:33:29.914Z,99595.28
2023-03-29T14:35:59.218Z,99599.75
2023-03-29T14:38:27.517Z,99588.00
2023-03-29T14:40:59.452Z,99586.91
2023-03-29T14:43:31.100Z,99583.81
2023-03-29T14:45:58.751Z,99580.13
2023-03-29T14:48:26.589Z,99593.88
2023-03-29T14:50:53.643Z,99564.88
2023-03-29T14:53:22.960Z,99567.28
2023-03-29T14:55:52.601Z,99545.72
2023-03-29T14:58:37.238Z,99545.53
2023-03-29T15:01:16.258Z,99549.41
2023-03-29T15:04:10.570Z,99562.09
2023-03-29T15:06:47.047Z,99566.78
2023-03-29T15:09:27.217Z,99557.31
2023-03-29T15:11:56.592Z,99556.72
2023-03-29T15:14:27.054Z,99556.31
2023-03-29T15:17:02.945Z,99557.94
2023-03-29T15:19:29.720Z,99558.25
2023-03-29T15:21:56.375Z,99550.38
2023-03-29T15:24:27.944Z,99522.25
2023-03-29T15:27:03.791Z,99530.19
2023-03-29T15:29:41.282Z,99533.31
2023-03-29T15:32:09.942Z,99530.50
2023-03-29T15:34:38.377Z,99518.72
2023-03-29T15:37:05.092Z,99533.59
2023-03-29T15:39:32.585Z,99554.81
2023-03-29T15:41:59.582Z,99542.47
2023-03-29T15:44:32.673Z,99540.84
2023-03-29T15:47:00.207Z,99540.34
2023-03-29T15:49:27.294Z,99543.97
2023-03-29T15:51:54.840Z,99529.44
2023-03-29T15:54:22.450Z,99529.28
2023-03-29T15:56:53.625Z,99536.06
2023-03-29T15:59:20.900Z,99532.97
2023-03-29T16:01:48.216Z,99519.38
2023-03-29T16:04:20.700Z,99534.34
2023-03-29T16:06:53.356Z,99519.59
2023-03-29T16:09:21.713Z,99520.63
2023-03-29T16:11:49.613Z,99531.00
2023-03-29T16:14:23.207Z,99525.59
2023-03-29T16:16:51.467Z,99524.94
2023-03-29T16:19:18.472Z,99530.53
2023-03-29T16:21:45.779Z,99517.50
2023-03-29T16:24:15.658Z,99522.25
2023-03-29T16:26:42.807Z,99526.22
2023-03-29T16:29:09.648Z,99516.25
2023-03-29T16:31:36.443Z,99514.16
2023-03-29T16:34:04.397Z,99500.66
2023-03-29T16:36:33.171Z,99497.16
2023-03-29T16:39:00.339Z,99494.41
2023-03-29T16:41:27.169Z,99504.34
2023-03-29T16:43:54.187Z,99493.44
2023-03-29T16:46:21.097Z,99484.25
2023-03-29T16:48:48.972Z,99473.84
2023-03-29T16:51:15.892Z,99473.72
2023-03-29T16:53:43.291Z,99486.63
2023-03-29T16:56:10.999Z,99481.44
2023-03-29T16:58:41.564Z,99468.94
2023-03-29T17:01:13.457Z,99469.81
2023-03-29T17:03:41.113Z,99467.34
2023-03-29T17:06:09.193Z,99471.75
2023-03-29T17:08:36.736Z,99481.38
2023-03-29T17:11:04.240Z,99484.97
2023-03-29T17:13:31.230Z,99483.66
2023-03-29T17:15:58.218Z,99490.03
2023-03-29T17:18:28.007Z,99478.13
2023-03-29T17:20:58.771Z,99475.25
2023-03-29T17:23:25.931Z,99477.28
2023-03-29T17:25:55.686Z,99468.78
2023-03-29T17:28:23.234Z,99450.16
2023-03-29T17:30:49.951Z,99461.25
2023-03-29T17:33:18.176Z,99459.75
2023-03-29T17:35:46.042Z,99459.31
2023-03-29T17:38:12.841Z,99459.09
2023-03-29T17:40:39.743Z,99451.59
2023-03-29T17:43:06.618Z,99463.41
2023-03-29T17:45:35.347Z,99476.72
2023-03-29T17:48:04.763Z,99456.28
2023-03-29T17:50:33.127Z,99459.50
2023-03-29T17:52:59.811Z,99477.09
2023-03-29T17:55:27.468Z,99459.75
2023-03-29T17:57:54.342Z,99468.59
2023-03-29T18:00:21.358Z,99476.88
2023-03-29T18:02:48.213Z,99472.53
2023-03-29T18:05:15.243Z,99472.84
2023-03-29T18:07:41.890Z,99473.25
2023-03-29T18:10:08.911Z,99468.16
2023-03-29T18:12:36.449Z,99466.53
2023-03-29T18:15:04.145Z,99471.59
2023-03-29T18:17:31.374Z,99470.78
2023-03-29T18:19:58.182Z,99469.16
2023-03-29T18:22:25.033Z,99466.44
2023-03-29T18:24:51.825Z,99478.41
2023-03-29T18:27:19.048Z,99478.41
2023-03-29T18:29:45.889Z,99477.91
2023-03-29T18:32:13.126Z,99482.44
2023-03-29T18:34:40.087Z,99482.34
2023-03-29T18:37:07.487Z,99490.94
2023-03-29T18:39:34.814Z,99488.53
2023-03-29T18:42:02.822Z,99484.25
2023-03-29T18:44:29.637Z,99481.25
2023-03-29T18:46:56.415Z,99501.28
2023-03-29T18:49:39.497Z,99495.16
2023-03-29T18:52:06.160Z,99498.47
2023-03-29T18:54:32.910Z,99491.41
2023-03-29T18:57:00.742Z,99479.50
2023-03-29T18:59:27.653Z,99485.44
2023-03-29T19:01:54.514Z,99480.66
2023-03-29T19:04:21.497Z,99475.50
2023-03-29T19:06:49.385Z,99478.09
2023-03-29T19:09:16.276Z,99487.25
2023-03-29T19:11:43.815Z,99481.63
2023-03-29T19:14:10.612Z,99482.91
2023-03-29T19:16:37.542Z,99482.09
2023-03-29T19:19:06.944Z,99483.16
2023-03-29T19:21:33.756Z,99483.00
2023-03-29T19:24:01.166Z,99487.25
2023-03-29T19:26:33.452Z,99480.34
2023-03-29T19:29:02.340Z,99486.28
2023-03-29T19:31:29.179Z,99491.41
2023-03-29T19:33:56.486Z,99485.78
2023-03-29T19:36:23.146Z,99475.28
2023-03-29T19:38:50.182Z,99478.94
2023-03-29T19:41:17.517Z,99476.25
2023-03-29T19:43:44.208Z,99485.16
2023-03-29T19:46:12.912Z,99488.97
2023-03-29T19:48:40.278Z,99478.94
2023-03-29T19:51:08.032Z,99482.75
2023-03-29T19:53:38.166Z,99479.63
2023-03-29T19:56:07.898Z,99480.06
2023-03-29T19:58:34.748Z,99479.72
2023-03-29T20:01:01.627Z,99478.66
2023-03-29T20:03:28.728Z,99480.75
2023-03-29T20:05:56.693Z,99482.03
2023-03-29T20:08:24.892Z,99485.00
2023-03-29T20:15:51.886Z,99484.78
2023-03-29T20:18:18.841Z,99477.03
2023-03-29T20:20:46.875Z,99482.50
2023-03-29T20:23:15.634Z,99483.34
2023-03-29T20:25:42.612Z,99481.69
2023-03-29T20:28:09.398Z,99480.22
2023-03-29T20:30:36.416Z,99473.72
2023-03-29T20:33:04.346Z,99470.28
2023-03-29T20:35:31.039Z,99477.44
2023-03-29T20:37:57.865Z,99478.03
2023-03-29T20:40:24.914Z,99478.25
2023-03-29T20:42:54.289Z,99474.69
2023-03-29T20:45:21.162Z,99471.56
2023-03-29T20:47:57.911Z,99467.78
2023-03-29T20:50:30.317Z,99469.47
2023-03-29T20:52:57.412Z,99464.00
2023-03-29T20:55:24.454Z,99458.28
2023-03-29T20:57:54.281Z,99460.16
2023-03-29T21:00:24.163Z,99450.97
2023-03-29T21:02:52.485Z,99457.38
2023-03-29T21:05:19.509Z,99454.00
2023-03-29T21:07:48.138Z,99449.41
2023-03-29T21:10:15.889Z,99453.19
2023-03-29T21:12:42.947Z,99459.34
2023-03-29T21:15:11.464Z,99458.50
2023-03-29T21:17:38.187Z,99449.47
2023-03-29T21:20:11.172Z,99450.53
2023-03-29T21:22:39.418Z,99458.72
2023-03-29T21:25:08.244Z,99458.13
2023-03-29T21:27:34.996Z,99447.63
2023-03-29T21:30:02.908Z,99441.09
2023-03-29T21:32:29.631Z,99439.41
2023-03-29T21:34:56.436Z,99443.25
2023-03-29T21:37:23.460Z,99441.53
2023-03-29T21:39:50.539Z,99445.78
2023-03-29T21:42:17.748Z,99452.28
2023-03-29T21:44:45.087Z,99455.03
2023-03-29T21:47:11.792Z,99465.97
2023-03-29T21:49:39.769Z,99467.03
2023-03-29T21:52:07.271Z,99462.41
2023-03-29T21:54:34.282Z,99464.31
2023-03-29T21:57:01.369Z,99474.38
2023-03-29T21:59:28.217Z,99464.50
2023-03-29T22:01:55.218Z,99463.44
2023-03-29T22:04:33.541Z,99477.50
2023-03-29T22:07:03.459Z,99469.53
2023-03-29T22:09:30.285Z,99457.75
2023-03-29T22:11:59.996Z,99468.22
2023-03-29T22:14:29.589Z,99461.72
2023-03-29T22:16:56.385Z,99460.03
2023-03-29T22:19:23.115Z,99468.84
2023-03-29T22:21:51.500Z,99463.41
2023-03-29T22:24:18.975Z,99468.66
2023-03-29T22:26:45.990Z,99470.56
2023-03-29T22:29:12.837Z,99467.38
2023-03-29T22:31:39.714Z,99471.34
2023-03-29T22:34:06.741Z,99468.16
2023-03-29T22:36:33.767Z,99469.81
2023-03-29T22:39:00.771Z,99468.78
2023-03-29T22:41:28.337Z,99463.31
2023-03-29T22:43:57.897Z,99461.63
2023-03-29T22:46:25.521Z,99463.72
2023-03-29T22:48:53.137Z,99468.19
2023-03-29T22:51:20.530Z,99466.31
2023-03-29T22:53:47.706Z,99470.94
2023-03-29T22:56:15.979Z,99470.56
2023-03-29T22:58:43.148Z,99483.38
2023-03-29T23:01:10.332Z,99482.75
2023-03-29T23:03:37.102Z,99489.28
2023-03-29T23:06:04.649Z,99498.75
2023-03-29T23:08:32.985Z,99486.59
2023-03-29T23:11:00.690Z,99486.44
2023-03-29T23:13:29.419Z,99497.81
2023-03-29T23:15:59.214Z,99491.34
2023-03-29T23:18:28.670Z,99496.66
2023-03-29T23:20:57.369Z,99507.00
2023-03-29T23:23:25.565Z,99497.44
2023-03-29T23:25:53.373Z,99509.84
2023-03-29T23:28:24.816Z,99510.06
2023-03-29T23:31:00.559Z,99512.63
2023-03-29T23:33:30.723Z,99503.66
2023-03-29T23:35:58.827Z,99509.38
2023-03-29T23:38:26.860Z,99514.84
2023-03-29T23:41:00.522Z,99521.84
2023-03-29T23:43:32.640Z,99527.34
2023-03-29T23:46:02.737Z,99531.56
2023-03-29T23:48:29.789Z,99536.84
2023-03-29T23:50:59.436Z,99535.81
2023-03-29T23:53:29.051Z,99539.38
2023-03-29T23:56:00.576Z,99545.50
2023-03-29T23:58:36.186Z,99540.47
